Roanoke — WDD9656 — position and weather

sailwx.info

Track history (hours):
 
Tides and Currents Weather Stations Pressure Air Temp Water Temp Dewpoint Dewpoint Depression Visibility Wind Speed Wind Dir Waves Ship Positions

Roanoke

Owner: Vane Line Bunkering, Baltimore, MD. More information available from US FCC via Universal Licensing System and Coast Guard Vessel Documentation Center.

Last reported at 2015-May-04 21:21 UTC. Time now 2015-May-05 02:10 UTC.
Position N 39°16' W 076°36'.

Length 32 m; draft 13 m.

Type: Towing. MMSI: 367314510.

Date/timePositionNaut miles runAvg speedWind from/ knotsBaromVisibWave heightAir tempDewpointWater temp
2015-May-04 21:21N 39°16' W 076°36'0 0.0
2015-May-04 20:16N 39°16' W 076°36'0 0.0
2015-May-04 12:26N 39°16' W 076°36'0 0.0
2015-May-04 11:33N 39°16' W 076°36'0 0.0
2015-May-04 10:25N 39°16' W 076°36'0 0.0
2015-May-04 08:14N 39°16' W 076°36'0 0.0
2015-May-03 19:29N 39°16' W 076°36'0 0.0
2015-May-03 18:33N 39°16' W 076°36'0 0.0
2015-May-03 16:31N 39°16' W 076°36'0 0.0
2015-May-03 14:23N 39°16' W 076°36'0 0.0
2015-May-03 13:33N 39°16' W 076°36'0 0.0
2015-May-03 12:28N 39°16' W 076°36'0 0.0
2015-May-03 02:32N 39°16' W 076°36'0 0.0
2015-May-02 19:30N 39°16' W 076°36'0 0.0
2015-May-02 03:26N 39°16' W 076°36'0 0.0
2015-May-01 18:29N 39°16' W 076°36'0 0.0
2015-May-01 15:07N 39°16' W 076°36'0 0.0
2015-May-01 12:09N 39°16' W 076°36'0 0.0
2015-May-01 11:33N 39°16' W 076°36'0 0.0
2015-May-01 10:28N 39°16' W 076°36'0 0.0
2015-May-01 09:05N 39°16' W 076°36'0 0.0
2015-May-01 08:29N 39°16' W 076°36'0 0.0
2015-May-01 07:18N 39°16' W 076°36'0 0.0
2015-May-01 02:24N 39°16' W 076°36'0 0.0
2015-May-01 01:04N 39°16' W 076°36'0 0.0
2015-May-01 00:17N 39°16' W 076°36'0 0.0
2015-Apr-30 23:29N 39°16' W 076°36'0 0.0
2015-Apr-30 22:33N 39°16' W 076°36'0 0.0
2015-Apr-30 05:09N 39°16' W 076°36'0 0.0
2015-Apr-30 02:10N 39°16' W 076°36'0 0.0
2015-Apr-29 19:18N 39°16' W 076°36'0 0.0
2015-Apr-29 08:23N 39°16' W 076°36'0 0.0
2015-Apr-29 06:15N 39°16' W 076°36'0 0.0
2015-Apr-29 05:33N 39°16' W 076°36'0 0.0
2015-Apr-29 04:22N 39°16' W 076°36'0 0.0
2015-Apr-29 03:05N 39°16' W 076°36'0 0.0
2015-Apr-28 23:25N 39°16' W 076°36'0 0.0
2015-Apr-28 22:11N 39°16' W 076°36'0 0.0
2015-Apr-28 21:33N 39°16' W 076°36'0 0.0
2015-Apr-28 20:30N 39°16' W 076°36'0 0.0
2015-Apr-28 17:29N 39°16' W 076°36'0 0.0
2015-Apr-28 15:19N 39°16' W 076°36'0 0.0
2015-Apr-28 14:31N 39°16' W 076°36'0 0.0
2015-Apr-28 12:21N 39°16' W 076°36'0 0.0
2015-Apr-28 11:33N 39°16' W 076°36'0 0.0
2015-Apr-28 10:31N 39°16' W 076°36'0 0.0
2015-Apr-28 09:29N 39°16' W 076°36'0 0.0
2015-Apr-28 07:15N 39°16' W 076°36'0 0.0
2015-Apr-28 05:11N 39°16' W 076°36'0 0.0
2015-Apr-28 04:17N 39°16' W 076°36'0 0.0
2015-Apr-28 03:33N 39°16' W 076°36'0 0.0
2015-Apr-28 02:21N 39°16' W 076°36'0 0.0
2015-Apr-28 01:31N 39°16' W 076°36'0 0.0
2015-Apr-28 00:23N 39°16' W 076°36'0 0.0
2015-Apr-27 23:29N 39°16' W 076°36'0 0.0
2015-Apr-27 22:30N 39°16' W 076°36'0 0.0
2015-Apr-27 21:28N 39°16' W 076°36'0 0.0
2015-Apr-27 20:29N 39°16' W 076°36'0 0.0
2015-Apr-27 17:10N 39°16' W 076°36'1 0.2
2015-Apr-27 11:33N 39°16' W 076°35'2 0.5
2015-Apr-27 08:28N 39°15' W 076°34'0 0.0
2015-Apr-27 07:26N 39°15' W 076°34'0 0.0
2015-Apr-27 06:24N 39°15' W 076°34'0 0.0
2015-Apr-27 05:30N 39°15' W 076°34'0 0.0
2015-Apr-27 03:14N 39°15' W 076°34'0 0.0
2015-Apr-26 15:12N 39°15' W 076°34'0 0.0
2015-Apr-26 14:25N 39°15' W 076°34'1 0.4
2015-Apr-26 11:29N 39°16' W 076°33'0 0.0
2015-Apr-26 09:21N 39°16' W 076°33'0 0.0
2015-Apr-26 08:31N 39°16' W 076°33'0 0.0
2015-Apr-26 07:22N 39°16' W 076°33'1 0.1
2015-Apr-26 02:27N 39°15' W 076°33'15 7.5
2015-Apr-26 00:26N 39°17' W 076°14'910.1
2015-Apr-25 23:33N 39°23' W 076°06'10 9.9
2015-Apr-25 22:33N 39°30' W 075°56'9 9.0
2015-Apr-25 21:33N 39°32' W 075°45'9 8.8
2015-Apr-25 20:33N 39°34' W 075°34'6 6.4
2015-Apr-25 19:33N 39°40' W 075°32'9 8.6
2015-Apr-25 18:33N 39°47' W 075°27'1010.0
2015-Apr-25 17:33N 39°51' W 075°15'9 9.1
2015-Apr-25 16:33N 39°58' W 075°07'1110.6
2015-Apr-25 15:33N 40°04' W 074°56'2 0.8
2015-Apr-25 12:30N 40°05' W 074°52'0 0.0
2015-Apr-25 09:06N 40°05' W 074°52'0 0.0
2015-Apr-25 08:33N 40°05' W 074°52'0 0.0
2015-Apr-25 06:11N 40°05' W 074°52'0 0.0
2015-Apr-25 05:20N 40°05' W 074°52'0 0.0
2015-Apr-25 03:10N 40°05' W 074°52'1 0.3
2015-Apr-24 23:33N 40°05' W 074°54'9 8.9
2015-Apr-24 22:34N 39°60' W 075°04'6 5.3
2015-Apr-24 21:28N 39°55' W 075°08'  
Track history (hours):
 
Tides and Currents Weather Stations Pressure Air Temp Water Temp Dewpoint Dewpoint Depression Visibility Wind Speed Wind Dir Waves Ship Positions

Roanoke

Owner: Vane Line Bunkering, Baltimore, MD. More information available from US FCC via Universal Licensing System and Coast Guard Vessel Documentation Center.

Last reported at 2015-May-04 21:21 UTC. Time now 2015-May-05 02:10 UTC.
Position N 39°16' W 076°36'.

Length 32 m; draft 13 m.

Type: Towing. MMSI: 367314510.

Date/timePositionNaut miles runAvg speedWind from/ knotsBaromVisibWave heightAir tempDewpointWater temp
2015-May-04 21:21N 39°16' W 076°36'0 0.0
2015-May-04 20:16N 39°16' W 076°36'0 0.0
2015-May-04 12:26N 39°16' W 076°36'0 0.0
2015-May-04 11:33N 39°16' W 076°36'0 0.0
2015-May-04 10:25N 39°16' W 076°36'0 0.0
2015-May-04 08:14N 39°16' W 076°36'0 0.0
2015-May-03 19:29N 39°16' W 076°36'0 0.0
2015-May-03 18:33N 39°16' W 076°36'0 0.0
2015-May-03 16:31N 39°16' W 076°36'0 0.0
2015-May-03 14:23N 39°16' W 076°36'0 0.0
2015-May-03 13:33N 39°16' W 076°36'0 0.0
2015-May-03 12:28N 39°16' W 076°36'0 0.0
2015-May-03 02:32N 39°16' W 076°36'0 0.0
2015-May-02 19:30N 39°16' W 076°36'0 0.0
2015-May-02 03:26N 39°16' W 076°36'0 0.0
2015-May-01 18:29N 39°16' W 076°36'0 0.0
2015-May-01 15:07N 39°16' W 076°36'0 0.0
2015-May-01 12:09N 39°16' W 076°36'0 0.0
2015-May-01 11:33N 39°16' W 076°36'0 0.0
2015-May-01 10:28N 39°16' W 076°36'0 0.0
2015-May-01 09:05N 39°16' W 076°36'0 0.0
2015-May-01 08:29N 39°16' W 076°36'0 0.0
2015-May-01 07:18N 39°16' W 076°36'0 0.0
2015-May-01 02:24N 39°16' W 076°36'0 0.0
2015-May-01 01:04N 39°16' W 076°36'0 0.0
2015-May-01 00:17N 39°16' W 076°36'0 0.0
2015-Apr-30 23:29N 39°16' W 076°36'0 0.0
2015-Apr-30 22:33N 39°16' W 076°36'0 0.0
2015-Apr-30 05:09N 39°16' W 076°36'0 0.0
2015-Apr-30 02:10N 39°16' W 076°36'0 0.0
2015-Apr-29 19:18N 39°16' W 076°36'0 0.0
2015-Apr-29 08:23N 39°16' W 076°36'0 0.0
2015-Apr-29 06:15N 39°16' W 076°36'0 0.0
2015-Apr-29 05:33N 39°16' W 076°36'0 0.0
2015-Apr-29 04:22N 39°16' W 076°36'0 0.0
2015-Apr-29 03:05N 39°16' W 076°36'0 0.0
2015-Apr-28 23:25N 39°16' W 076°36'0 0.0
2015-Apr-28 22:11N 39°16' W 076°36'0 0.0
2015-Apr-28 21:33N 39°16' W 076°36'0 0.0
2015-Apr-28 20:30N 39°16' W 076°36'0 0.0
2015-Apr-28 17:29N 39°16' W 076°36'0 0.0
2015-Apr-28 15:19N 39°16' W 076°36'0 0.0
2015-Apr-28 14:31N 39°16' W 076°36'0 0.0
2015-Apr-28 12:21N 39°16' W 076°36'0 0.0
2015-Apr-28 11:33N 39°16' W 076°36'0 0.0
2015-Apr-28 10:31N 39°16' W 076°36'0 0.0
2015-Apr-28 09:29N 39°16' W 076°36'0 0.0
2015-Apr-28 07:15N 39°16' W 076°36'0 0.0
2015-Apr-28 05:11N 39°16' W 076°36'0 0.0
2015-Apr-28 04:17N 39°16' W 076°36'0 0.0
2015-Apr-28 03:33N 39°16' W 076°36'0 0.0
2015-Apr-28 02:21N 39°16' W 076°36'0 0.0
2015-Apr-28 01:31N 39°16' W 076°36'0 0.0
2015-Apr-28 00:23N 39°16' W 076°36'0 0.0
2015-Apr-27 23:29N 39°16' W 076°36'0 0.0
2015-Apr-27 22:30N 39°16' W 076°36'0 0.0
2015-Apr-27 21:28N 39°16' W 076°36'0 0.0
2015-Apr-27 20:29N 39°16' W 076°36'0 0.0
2015-Apr-27 17:10N 39°16' W 076°36'1 0.2
2015-Apr-27 11:33N 39°16' W 076°35'2 0.5
2015-Apr-27 08:28N 39°15' W 076°34'0 0.0
2015-Apr-27 07:26N 39°15' W 076°34'0 0.0
2015-Apr-27 06:24N 39°15' W 076°34'0 0.0
2015-Apr-27 05:30N 39°15' W 076°34'0 0.0
2015-Apr-27 03:14N 39°15' W 076°34'0 0.0
2015-Apr-26 15:12N 39°15' W 076°34'0 0.0
2015-Apr-26 14:25N 39°15' W 076°34'1 0.4
2015-Apr-26 11:29N 39°16' W 076°33'0 0.0
2015-Apr-26 09:21N 39°16' W 076°33'0 0.0
2015-Apr-26 08:31N 39°16' W 076°33'0 0.0
2015-Apr-26 07:22N 39°16' W 076°33'1 0.1
2015-Apr-26 02:27N 39°15' W 076°33'15 7.5
2015-Apr-26 00:26N 39°17' W 076°14'910.1
2015-Apr-25 23:33N 39°23' W 076°06'10 9.9
2015-Apr-25 22:33N 39°30' W 075°56'9 9.0
2015-Apr-25 21:33N 39°32' W 075°45'9 8.8
2015-Apr-25 20:33N 39°34' W 075°34'6 6.4
2015-Apr-25 19:33N 39°40' W 075°32'9 8.6
2015-Apr-25 18:33N 39°47' W 075°27'1010.0
2015-Apr-25 17:33N 39°51' W 075°15'9 9.1
2015-Apr-25 16:33N 39°58' W 075°07'1110.6
2015-Apr-25 15:33N 40°04' W 074°56'2 0.8
2015-Apr-25 12:30N 40°05' W 074°52'0 0.0
2015-Apr-25 09:06N 40°05' W 074°52'0 0.0
2015-Apr-25 08:33N 40°05' W 074°52'0 0.0
2015-Apr-25 06:11N 40°05' W 074°52'0 0.0
2015-Apr-25 05:20N 40°05' W 074°52'0 0.0
2015-Apr-25 03:10N 40°05' W 074°52'1 0.3
2015-Apr-24 23:33N 40°05' W 074°54'9 8.9
2015-Apr-24 22:34N 39°60' W 075°04'6 5.3
2015-Apr-24 21:28N 39°55' W 075°08'  

Dump ship's entire track history